Time;durP1;ratioP1;P1;durP2;ratioP2;P2;SDS_P1;SDS_P2;PMS_P1;PMS_P2;Temp;Humidity;BMP_temperature;BMP_pressure;BME280_temperature;BME280_humidity;BME280_pressure;Samples;Min_cycle;Max_cycle;Signal;HPM_P1;HPM_P2
2021/04/07 00:00:19;;;;;;;3.40;2.42;;;;;;;-1.51;78.15;94649.13;5008734;28;20037;-61
2021/04/07 00:02:45;;;;;;;4.07;2.70;;;;;;;-1.07;78.09;94705.56;5008439;28;20490;-60
2021/04/07 00:05:14;;;;;;;3.67;3.20;;;;;;;-1.03;77.53;94710.28;5008697;28;20121;-59
2021/04/07 00:07:42;;;;;;;5.38;1.90;;;;;;;-1.24;77.23;94696.97;5012215;28;20037;-60
2021/04/07 00:10:10;;;;;;;3.65;2.20;;;;;;;-1.28;77.28;94677.59;5012596;28;20042;-60
2021/04/07 00:12:36;;;;;;;3.05;2.10;;;;;;;-1.64;77.44;94634.59;5011032;28;20400;-59
2021/04/07 00:15:04;;;;;;;1.83;1.70;;;;;;;-1.40;77.09;94682.13;5012624;28;20041;-59
2021/04/07 00:17:29;;;;;;;5.35;2.10;;;;;;;-1.22;77.50;94699.34;5012154;28;20088;-60
2021/04/07 00:19:54;;;;;;;4.07;2.60;;;;;;;-1.34;76.63;94686.38;5010976;28;20483;-60
2021/04/07 00:22:20;;;;;;;2.78;2.53;;;;;;;-1.28;76.74;94651.50;5014134;28;20101;-59
2021/04/07 00:24:45;;;;;;;5.10;2.65;;;;;;;-0.97;77.13;94684.00;5012401;28;20038;-60
2021/04/07 00:27:13;;;;;;;2.10;1.90;;;;;;;-1.12;76.94;94717.75;5012157;28;20527;-59
2021/04/07 00:29:38;;;;;;;3.80;2.65;;;;;;;-0.73;77.13;94728.94;5012315;28;20400;-59
2021/04/07 00:32:04;;;;;;;3.15;2.00;;;;;;;-1.18;76.64;94654.25;5012086;28;20030;-60
2021/04/07 00:34:31;;;;;;;4.18;2.35;;;;;;;-1.43;77.15;94652.13;5013030;28;20072;-59
2021/04/07 00:36:56;;;;;;;4.22;2.63;;;;;;;-0.68;76.07;94723.78;5012021;28;20038;-59
2021/04/07 00:39:22;;;;;;;4.78;2.75;;;;;;;-0.73;76.00;94715.88;5012282;28;20519;-60
2021/04/07 00:41:47;;;;;;;4.30;3.03;;;;;;;-0.96;77.39;94723.97;5011734;28;20045;-59
2021/04/07 00:44:12;;;;;;;6.45;3.67;;;;;;;-1.29;77.66;94664.78;5012230;28;20041;-59
2021/04/07 00:46:38;;;;;;;2.53;2.30;;;;;;;-1.76;78.41;94647.72;5013932;28;20034;-59
2021/04/07 00:49:03;;;;;;;3.80;3.38;;;;;;;-0.97;78.32;94731.00;5012014;28;20511;-60
2021/04/07 00:51:29;;;;;;;4.00;2.80;;;;;;;-0.90;78.04;94725.59;5010221;28;20046;-59
2021/04/07 00:53:54;;;;;;;5.88;3.47;;;;;;;-1.27;78.30;94687.03;5011854;28;20046;-60
2021/04/07 00:56:20;;;;;;;7.45;2.65;;;;;;;-1.82;79.16;94622.63;5011808;28;20030;-58
2021/04/07 00:58:46;;;;;;;6.97;3.92;;;;;;;-1.11;79.84;94729.75;5013527;28;20049;-59
2021/04/07 01:01:11;;;;;;;9.90;3.83;;;;;;;-1.32;79.70;94695.56;5011757;28;20034;-59
2021/04/07 01:03:37;;;;;;;3.92;3.25;;;;;;;-2.00;78.85;94575.94;5011626;28;20072;-59
2021/04/07 01:06:03;;;;;;;4.63;2.97;;;;;;;-1.08;79.58;94706.56;5010302;28;20524;-60
2021/04/07 01:08:29;;;;;;;5.32;3.60;;;;;;;-1.17;80.42;94717.69;5011342;28;20125;-60
2021/04/07 01:10:54;;;;;;;6.88;3.63;;;;;;;-1.06;79.98;94729.84;5010237;28;20113;-60
2021/04/07 01:13:19;;;;;;;5.07;3.25;;;;;;;-1.28;80.16;94689.84;5013328;28;20077;-59
2021/04/07 01:15:45;;;;;;;5.22;3.33;;;;;;;-1.18;79.48;94716.09;5011415;28;20042;-60
2021/04/07 01:18:11;;;;;;;7.13;3.35;;;;;;;-1.02;79.27;94712.66;5009885;28;20030;-58
2021/04/07 01:20:36;;;;;;;9.00;4.00;;;;;;;-1.24;78.72;94650.00;5009900;28;20432;-60
2021/04/07 01:23:03;;;;;;;7.70;3.30;;;;;;;-1.09;78.44;94696.38;5011020;28;20030;-58
2021/04/07 01:25:29;;;;;;;4.15;3.10;;;;;;;-1.54;78.65;94626.09;5013330;28;20491;-60
2021/04/07 01:27:56;;;;;;;5.55;3.40;;;;;;;-0.61;77.15;94727.00;5011009;28;20038;-59
2021/04/07 01:30:22;;;;;;;4.93;3.08;;;;;;;-0.86;77.09;94739.75;5011048;28;20096;-59
2021/04/07 01:32:47;;;;;;;5.60;3.45;;;;;;;-1.29;77.03;94629.06;5010846;28;20038;-59
2021/04/07 01:35:16;;;;;;;3.67;2.42;;;;;;;-0.87;76.53;94738.16;5011028;28;20037;-59
2021/04/07 01:37:41;;;;;;;4.53;3.20;;;;;;;-1.67;77.17;94641.09;5011476;28;20042;-59
2021/04/07 01:40:10;;;;;;;4.78;3.20;;;;;;;-1.00;75.65;94666.22;5010968;28;20046;-60
2021/04/07 01:42:36;;;;;;;5.68;3.17;;;;;;;-0.68;75.77;94729.00;5010563;28;20077;-60
2021/04/07 01:45:05;;;;;;;4.72;3.13;;;;;;;-0.80;75.64;94729.13;5010508;28;20144;-60
2021/04/07 01:47:32;;;;;;;4.05;3.53;;;;;;;-0.86;75.77;94731.91;5010610;28;20041;-59
2021/04/07 01:50:00;;;;;;;4.22;2.80;;;;;;;-1.68;76.48;94644.72;5009344;28;20623;-58
2021/04/07 01:52:26;;;;;;;6.15;3.00;;;;;;;-1.17;76.75;94730.72;5012403;28;20026;-59
2021/04/07 01:54:52;;;;;;;5.15;3.10;;;;;;;-1.39;78.07;94707.97;5010600;28;20145;-59
2021/04/07 01:57:17;;;;;;;4.70;3.60;;;;;;;-1.48;77.99;94667.69;5008981;28;20034;-59
2021/04/07 01:59:42;;;;;;;2.92;2.58;;;;;;;-2.47;78.78;94545.03;5009192;28;20117;-60
2021/04/07 02:02:07;;;;;;;6.40;3.45;;;;;;;-1.35;78.54;94710.91;5010232;28;20037;-59
2021/04/07 02:04:33;;;;;;;4.93;3.80;;;;;;;-1.53;78.79;94703.34;5011036;28;20022;-60
2021/04/07 02:06:58;;;;;;;4.47;2.92;;;;;;;-1.61;78.71;94697.50;5008674;28;20034;-60
2021/04/07 02:09:24;;;;;;;4.97;2.38;;;;;;;-1.62;78.85;94708.94;5009390;28;20419;-59
2021/04/07 02:11:52;;;;;;;5.18;3.40;;;;;;;-1.80;78.37;94672.69;5008448;28;20034;-60
2021/04/07 02:14:19;;;;;;;1.75;1.55;;;;;;;-1.61;78.91;94736.59;5010324;28;20038;-59
2021/04/07 02:16:59;;;;;;;5.03;3.70;;;;;;;-1.39;77.88;94736.66;5011822;28;20029;-59
2021/04/07 02:19:27;;;;;;;4.85;3.92;;;;;;;-1.29;78.50;94730.03;5010593;28;20049;-59
2021/04/07 02:22:07;;;;;;;3.70;2.92;;;;;;;-1.85;78.52;94680.44;5008492;28;20357;-60
2021/04/07 02:24:37;;;;;;;4.18;2.38;;;;;;;-1.45;78.36;94747.28;5008836;28;20048;-59
2021/04/07 02:27:21;;;;;;;4.28;3.67;;;;;;;-1.35;77.13;94713.50;5009980;28;20038;-59
2021/04/07 02:29:50;;;;;;;4.95;3.20;;;;;;;-1.22;77.43;94735.88;5009860;28;20034;-59
2021/04/07 02:32:16;;;;;;;6.13;3.50;;;;;;;-1.80;77.29;94664.88;5009809;28;20550;-59
2021/04/07 02:34:43;;;;;;;6.50;4.15;;;;;;;-1.67;77.44;94674.97;5010628;28;20030;-59
2021/04/07 02:37:09;;;;;;;4.03;3.53;;;;;;;-1.73;76.32;94656.91;5009754;28;20037;-58
2021/04/07 02:39:35;;;;;;;3.67;3.38;;;;;;;-1.91;77.76;94652.72;5008534;28;20441;-59
2021/04/07 02:42:00;;;;;;;4.28;3.85;;;;;;;-1.34;76.58;94705.44;5009612;28;20096;-59
2021/04/07 02:44:26;;;;;;;5.38;3.42;;;;;;;-1.66;76.17;94665.34;5008501;28;20400;-60
2021/04/07 02:46:51;;;;;;;4.75;4.03;;;;;;;-1.70;76.00;94653.78;5011320;28;20037;-59
2021/04/07 02:49:17;;;;;;;3.15;2.85;;;;;;;-1.39;76.40;94731.44;4990512;28;20088;-59
2021/04/07 02:51:42;;;;;;;4.45;2.95;;;;;;;-1.31;75.74;94730.28;4989992;28;20089;-60
2021/04/07 02:54:08;;;;;;;6.07;3.40;;;;;;;-1.65;76.92;94712.03;4990121;28;20671;-60
2021/04/07 02:56:33;;;;;;;2.20;2.00;;;;;;;-1.76;77.51;94731.16;5005043;28;20046;-59
2021/04/07 02:58:59;;;;;;;5.80;3.13;;;;;;;-1.80;76.70;94696.16;4989779;28;20026;-59
2021/04/07 03:01:25;;;;;;;2.13;1.92;;;;;;;-2.01;76.25;94715.09;4991700;28;20060;-59
2021/04/07 03:03:51;;;;;;;4.30;3.08;;;;;;;-2.05;76.81;94665.25;4990056;28;20038;-59
2021/04/07 03:06:16;;;;;;;4.95;3.53;;;;;;;-1.46;75.79;94756.91;4990149;28;20053;-60
2021/04/07 03:08:42;;;;;;;8.00;3.47;;;;;;;-1.91;76.46;94704.84;4989866;28;20038;-59
2021/04/07 03:11:07;;;;;;;4.85;3.67;;;;;;;-1.60;76.23;94725.13;4989814;28;20026;-61
2021/04/07 03:13:33;;;;;;;6.47;3.65;;;;;;;-2.04;76.46;94655.66;5006772;28;20037;-59
2021/04/07 03:15:59;;;;;;;7.50;3.60;;;;;;;-1.94;76.28;94682.66;4989650;28;20104;-60
2021/04/07 03:18:24;;;;;;;3.08;2.33;;;;;;;-2.05;77.31;94711.38;4989521;28;20073;-59
2021/04/07 03:20:50;;;;;;;4.13;3.38;;;;;;;-1.63;76.50;94777.78;4989508;28;20030;-60
2021/04/07 03:23:15;;;;;;;3.50;2.85;;;;;;;-1.99;76.89;94736.53;4989379;28;20045;-60
2021/04/07 03:25:40;;;;;;;3.13;2.80;;;;;;;-1.86;77.16;94772.69;4991501;28;20550;-60
2021/04/07 03:28:06;;;;;;;5.10;3.35;;;;;;;-1.99;77.97;94754.75;5004521;28;20038;-60
2021/04/07 03:33:23;;;;;;;3.47;3.17;;;;;;;-1.85;77.30;94771.66;4989420;28;20042;-60
2021/04/07 03:35:50;;;;;;;5.03;3.80;;;;;;;-1.58;77.66;94800.56;4989510;28;20527;-60
2021/04/07 03:38:16;;;;;;;2.42;2.22;;;;;;;-1.75;78.00;94802.34;4989354;28;20089;-60
2021/04/07 03:40:43;;;;;;;3.08;2.78;;;;;;;-2.01;78.10;94772.44;4991112;28;20026;-60
2021/04/07 03:43:11;;;;;;;3.42;2.22;;;;;;;-1.80;78.93;94804.84;4988956;28;20052;-60
2021/04/07 03:45:37;;;;;;;4.95;3.97;;;;;;;-1.92;79.53;94799.72;4987861;28;20085;-59
2021/04/07 03:48:03;;;;;;;3.50;3.20;;;;;;;-1.90;80.30;94814.06;4987555;28;20096;-60
2021/04/07 03:50:28;;;;;;;3.30;2.97;;;;;;;-1.83;79.50;94795.72;4989170;28;20085;-60
2021/04/07 03:52:54;;;;;;;4.82;3.65;;;;;;;-1.81;78.68;94764.19;4989479;28;20065;-60
2021/04/07 03:55:19;;;;;;;5.22;3.33;;;;;;;-1.59;79.14;94814.59;4990131;28;20038;-59
2021/04/07 03:57:45;;;;;;;4.25;3.83;;;;;;;-1.77;77.66;94783.53;4989932;28;20054;-59
2021/04/07 04:00:11;;;;;;;4.72;3.25;;;;;;;-1.94;79.21;94786.13;4990455;28;20050;-59
2021/04/07 04:02:37;;;;;;;4.35;3.42;;;;;;;-1.83;78.27;94829.59;4990254;28;20057;-58
2021/04/07 04:05:03;;;;;;;3.90;3.53;;;;;;;-2.00;78.17;94781.81;4990416;28;20423;-59
2021/04/07 04:07:29;;;;;;;5.78;2.90;;;;;;;-1.81;78.04;94822.31;4991932;28;20481;-58
2021/04/07 04:09:54;;;;;;;8.55;3.10;;;;;;;-1.65;78.21;94824.16;4990337;28;20039;-59
2021/04/07 04:12:20;;;;;;;5.85;3.08;;;;;;;-1.68;76.97;94803.78;4990045;28;20034;-59
2021/04/07 04:14:45;;;;;;;3.17;2.88;;;;;;;-1.19;76.84;94843.16;4990192;28;20038;-59
2021/04/07 04:17:10;;;;;;;3.55;3.15;;;;;;;-1.52;75.86;94780.56;4990136;28;20497;-60
2021/04/07 04:19:36;;;;;;;6.55;3.60;;;;;;;-1.72;76.61;94810.50;4991904;28;20449;-59
2021/04/07 04:22:04;;;;;;;3.17;2.80;;;;;;;-1.14;75.34;94861.53;4988462;28;20057;-59
2021/04/07 04:24:29;;;;;;;2.53;2.33;;;;;;;-1.33;75.24;94868.00;4990364;28;20504;-60
2021/04/07 04:26:54;;;;;;;3.58;2.95;;;;;;;-1.44;74.47;94858.41;4989969;28;20042;-58
2021/04/07 04:29:20;;;;;;;2.03;1.88;;;;;;;-1.65;74.43;94844.22;4988999;28;20572;-60
2021/04/07 04:31:45;;;;;;;2.33;2.20;;;;;;;-1.76;75.58;94845.09;4991601;28;20034;-60
2021/04/07 04:34:10;;;;;;;4.28;2.90;;;;;;;-1.32;74.17;94874.81;4990106;28;20437;-60
2021/04/07 04:36:36;;;;;;;4.07;2.90;;;;;;;-1.76;75.11;94850.31;5005111;28;20042;-61
2021/04/07 04:39:01;;;;;;;10.15;3.60;;;;;;;-1.38;75.14;94873.16;4989472;28;20477;-59
2021/04/07 04:41:27;;;;;;;5.40;3.42;;;;;;;-1.25;74.45;94870.22;4989601;28;20042;-60
2021/04/07 04:43:52;;;;;;;3.40;2.63;;;;;;;-2.36;76.37;94768.16;4988262;28;20045;-62
2021/04/07 04:46:17;;;;;;;3.33;3.03;;;;;;;-2.60;80.81;94754.44;4990222;28;20038;-58
2021/04/07 04:48:43;;;;;;;3.05;2.72;;;;;;;-2.12;80.30;94888.72;4989592;28;20049;-63
2021/04/07 04:51:08;;;;;;;4.75;3.05;;;;;;;-1.97;80.53;94894.25;4989221;28;20089;-59
2021/04/07 04:53:34;;;;;;;7.47;5.13;;;;;;;-2.13;80.96;94838.44;4992171;28;20053;-60
2021/04/07 04:55:59;;;;;;;7.97;5.57;;;;;;;-1.35;81.77;94909.19;4993286;28;20033;-59
2021/04/07 04:58:24;;;;;;;8.13;4.80;;;;;;;-1.72;81.79;94914.78;4994895;28;20080;-62
2021/04/07 05:00:50;;;;;;;3.95;3.53;;;;;;;-1.91;83.08;94918.59;4993123;28;20120;-61
2021/04/07 05:03:15;;;;;;;7.47;6.28;;;;;;;-1.59;82.27;94872.78;4992899;28;20423;-60
2021/04/07 05:05:40;;;;;;;13.00;5.85;;;;;;;-1.71;83.27;94913.75;4993151;28;20038;-58
2021/04/07 05:08:06;;;;;;;8.02;4.70;;;;;;;-1.79;84.10;94919.38;4992786;28;20476;-58
2021/04/07 05:10:31;;;;;;;9.30;5.93;;;;;;;-2.64;84.53;94797.56;4993583;28;20062;-62
2021/04/07 05:12:57;;;;;;;7.18;5.15;;;;;;;-1.97;83.64;94870.00;4992685;28;20125;-60
2021/04/07 05:15:22;;;;;;;5.50;4.57;;;;;;;-1.35;81.82;94932.66;4989697;28;20142;-64
2021/04/07 05:17:49;;;;;;;6.88;5.00;;;;;;;-1.32;81.79;94937.44;4992760;28;20053;-65
2021/04/07 05:20:14;;;;;;;5.95;5.35;;;;;;;-1.09;80.60;94905.97;4992058;28;20068;-63
2021/04/07 05:22:40;;;;;;;5.78;5.28;;;;;;;-1.06;80.40;94946.50;4994557;28;20464;-63
2021/04/07 05:25:06;;;;;;;10.73;4.57;;;;;;;-1.18;79.75;94951.75;4992885;28;20046;-58
2021/04/07 05:27:31;;;;;;;3.88;3.50;;;;;;;-1.60;80.33;94941.59;4992374;28;20070;-62
2021/04/07 05:29:56;;;;;;;6.15;3.40;;;;;;;-1.71;80.73;94947.66;4992830;28;20038;-66
2021/04/07 05:32:22;;;;;;;7.88;4.60;;;;;;;-1.34;79.52;94926.41;4992240;28;20053;-61
2021/04/07 05:34:47;;;;;;;5.55;3.50;;;;;;;-1.50;80.56;94968.91;4994481;28;20062;-63
2021/04/07 05:37:12;;;;;;;3.92;3.53;;;;;;;-1.78;80.53;94977.50;4992425;28;20050;-62
2021/04/07 05:39:38;;;;;;;5.28;4.72;;;;;;;-1.39;80.92;94981.13;4992439;28;20043;-60
2021/04/07 05:42:04;;;;;;;8.50;4.30;;;;;;;-2.13;80.28;94837.63;5006108;28;20034;-67
2021/04/07 05:44:30;;;;;;;4.18;2.70;;;;;;;-2.75;82.64;94832.22;4992427;28;20385;-74
2021/04/07 05:46:57;;;;;;;6.95;5.10;;;;;;;-1.18;82.28;94988.28;4995102;28;20029;-64
2021/04/07 05:49:25;;;;;;;3.53;2.80;;;;;;;-1.74;84.74;94997.69;5007643;28;20088;-65
2021/04/07 05:51:50;;;;;;;3.53;3.22;;;;;;;-2.28;85.91;94934.53;5011422;28;20113;-65
2021/04/07 05:54:15;;;;;;;5.10;4.10;;;;;;;-2.03;89.68;95003.84;5011646;28;20128;-64
2021/04/07 05:56:41;;;;;;;8.18;4.25;;;;;;;-2.84;89.63;94896.06;5026722;28;20042;-64
2021/04/07 05:59:06;;;;;;;4.47;3.10;;;;;;;-2.10;89.95;95012.56;5010771;28;20466;-61
2021/04/07 06:01:32;;;;;;;8.20;4.85;;;;;;;-2.01;90.05;94994.75;5013368;28;20038;-59
2021/04/07 06:03:57;;;;;;;5.30;4.50;;;;;;;-1.84;89.40;95005.28;5011004;28;20053;-60
2021/04/07 06:06:23;;;;;;;7.15;4.63;;;;;;;-1.97;87.38;95001.09;5009442;28;20487;-60
2021/04/07 06:08:49;;;;;;;4.57;4.03;;;;;;;-1.64;85.45;94997.88;5026418;28;20053;-62
2021/04/07 06:11:16;;;;;;;3.70;3.10;;;;;;;-1.70;85.95;95055.38;5011438;28;20046;-61
2021/04/07 06:13:42;;;;;;;5.00;3.30;;;;;;;-1.31;83.81;95048.59;5013673;28;20030;-59
2021/04/07 06:16:07;;;;;;;4.05;3.72;;;;;;;-1.31;81.83;94965.09;5026598;28;20415;-60
2021/04/07 06:18:33;;;;;;;3.97;2.80;;;;;;;-1.28;83.67;95052.56;5010530;28;20061;-59
2021/04/07 06:20:58;;;;;;;8.57;4.07;;;;;;;-1.17;82.61;95025.66;5010707;28;20038;-60
2021/04/07 06:23:24;;;;;;;4.70;3.90;;;;;;;-1.28;81.88;94987.31;5011061;28;20117;-60
2021/04/07 06:25:49;;;;;;;5.00;3.60;;;;;;;-0.93;79.28;95015.88;5011793;28;20026;-60
2021/04/07 06:28:16;;;;;;;7.10;3.10;;;;;;;-0.74;79.77;95059.03;5011206;28;20030;-59
2021/04/07 06:33:08;;;;;;;11.25;4.28;;;;;;;-0.68;79.64;95063.31;5010661;28;20109;-59
2021/04/07 06:35:33;;;;;;;3.58;2.38;;;;;;;-1.56;80.53;95074.97;5010989;28;20045;-60
2021/04/07 06:37:59;;;;;;;4.53;3.63;;;;;;;-1.23;80.19;95089.19;5010663;28;20037;-60
2021/04/07 06:40:25;;;;;;;4.75;3.28;;;;;;;-1.30;80.25;95081.50;5012935;28;20034;-60
2021/04/07 06:42:50;;;;;;;4.05;3.47;;;;;;;-1.09;79.15;95099.13;5010622;28;20054;-60
2021/04/07 06:45:16;;;;;;;3.25;3.00;;;;;;;-1.27;78.57;95068.00;5010802;28;20133;-60
2021/04/07 06:47:42;;;;;;;5.25;4.00;;;;;;;-1.05;78.43;95096.84;5010024;28;20034;-61
2021/04/07 06:50:08;;;;;;;5.85;3.53;;;;;;;-0.97;78.11;95109.56;5010211;28;20037;-59
2021/04/07 06:52:33;;;;;;;6.60;3.58;;;;;;;-0.61;76.43;95092.72;5027587;28;20080;-58
2021/04/07 06:54:58;;;;;;;4.88;3.42;;;;;;;-1.19;77.17;95069.44;5010597;28;20046;-59
2021/04/07 06:57:24;;;;;;;4.07;2.85;;;;;;;-0.82;75.57;95125.50;5010170;28;20558;-60
2021/04/07 06:59:49;;;;;;;5.53;3.65;;;;;;;-0.43;73.34;95136.13;5010278;28;20033;-59
2021/04/07 07:02:16;;;;;;;7.35;4.25;;;;;;;-0.09;73.44;95113.44;5025553;28;20038;-60
2021/04/07 07:04:44;;;;;;;3.92;3.20;;;;;;;-0.69;73.78;95110.59;5012126;28;20026;-59
2021/04/07 07:07:09;;;;;;;6.47;3.80;;;;;;;-0.98;73.14;95055.72;5009753;28;20487;-59
2021/04/07 07:09:34;;;;;;;3.40;2.97;;;;;;;-0.90;72.73;95156.41;5010406;28;20084;-59
2021/04/07 07:12:01;;;;;;;7.60;3.13;;;;;;;-0.84;72.71;95098.03;5010224;28;20526;-59
2021/04/07 07:14:27;;;;;;;4.72;3.50;;;;;;;-0.52;71.47;95134.91;5010263;28;20050;-59
2021/04/07 07:16:54;;;;;;;5.53;3.45;;;;;;;-0.58;71.26;95141.09;5009219;28;20071;-59
2021/04/07 07:19:27;;;;;;;6.95;3.42;;;;;;;-0.37;68.92;95092.59;5006266;28;20420;-59
2021/04/07 07:22:03;;;;;;;5.85;2.60;;;;;;;-1.00;70.19;95148.38;4990151;28;20035;-59
2021/04/07 07:24:33;;;;;;;4.25;1.90;;;;;;;-1.27;71.11;95120.19;4990611;28;20064;-59
2021/04/07 07:27:00;;;;;;;3.45;3.05;;;;;;;-1.19;70.38;95116.41;4990027;28;20039;-60
2021/04/07 07:29:28;;;;;;;4.45;3.33;;;;;;;-0.58;70.28;95128.81;4990658;28;20038;-63
2021/04/07 07:32:08;;;;;;;4.13;3.20;;;;;;;-0.95;68.66;95110.09;4990099;28;20027;-62
2021/04/07 07:34:35;;;;;;;3.95;2.17;;;;;;;-0.60;69.53;95162.22;5007447;28;20057;-61
2021/04/07 07:37:05;;;;;;;7.45;4.20;;;;;;;-0.01;68.66;95117.47;4990189;28;20489;-63
2021/04/07 07:39:33;;;;;;;5.25;2.78;;;;;;;0.05;67.04;95174.06;4990277;28;20042;-61
2021/04/07 07:42:04;;;;;;;6.50;3.55;;;;;;;-0.10;68.58;95165.97;4990163;28;20030;-61
2021/04/07 07:44:32;;;;;;;2.63;2.43;;;;;;;-0.25;68.83;95200.50;5005182;28;20026;-62
2021/04/07 07:47:08;;;;;;;4.68;2.95;;;;;;;-0.50;70.80;95189.56;4989875;28;20093;-62
2021/04/07 07:49:34;;;;;;;9.98;4.43;;;;;;;-0.50;71.44;95105.97;4991926;28;20030;-61
2021/04/07 07:51:59;;;;;;;4.43;3.88;;;;;;;-0.38;71.08;95157.13;4989603;28;20101;-61
2021/04/07 07:54:25;;;;;;;4.93;3.42;;;;;;;0.36;68.69;95192.84;4990291;28;20105;-61
2021/04/07 07:56:52;;;;;;;3.80;3.50;;;;;;;0.29;69.61;95203.47;5004924;28;20046;-61
2021/04/07 07:59:37;;;;;;;9.25;3.63;;;;;;;-0.38;73.81;95219.06;4990048;28;20487;-61
2021/04/07 08:02:14;;;;;;;8.32;5.47;;;;;;;0.39;78.14;95215.94;5004865;28;20054;-61
2021/04/07 08:04:46;;;;;;;6.55;5.05;;;;;;;-0.18;79.65;95210.78;4991991;28;20105;-60
2021/04/07 08:07:16;;;;;;;6.32;5.25;;;;;;;-0.67;79.27;95172.00;4989737;28;20049;-61
2021/04/07 08:09:41;;;;;;;8.52;4.32;;;;;;;-0.97;81.89;95226.22;4990193;28;20046;-62
2021/04/07 08:12:10;;;;;;;4.88;4.32;;;;;;;-1.15;80.02;95170.53;4990040;28;20508;-61
2021/04/07 08:14:36;;;;;;;7.88;4.40;;;;;;;-1.07;80.70;95191.06;4990061;28;20027;-61
2021/04/07 08:17:03;;;;;;;3.78;3.22;;;;;;;-0.96;79.53;95244.28;4989846;28;20073;-61
2021/04/07 08:19:30;;;;;;;5.78;3.65;;;;;;;-0.67;79.67;95234.69;4991629;28;20026;-62
2021/04/07 08:21:58;;;;;;;4.80;2.90;;;;;;;-0.62;76.84;95260.13;4989485;28;20078;-61
2021/04/07 08:24:27;;;;;;;4.82;3.05;;;;;;;-0.68;77.01;95234.94;4989768;28;20050;-62
2021/04/07 08:26:53;;;;;;;3.20;2.40;;;;;;;-1.76;81.59;95229.16;4989752;28;20035;-61
2021/04/07 08:29:19;;;;;;;3.97;2.40;;;;;;;-2.30;84.93;95207.50;4993632;28;20049;-61
2021/04/07 08:31:47;;;;;;;5.18;3.08;;;;;;;-2.02;85.90;95221.75;4995509;28;20030;-61
2021/04/07 08:34:13;;;;;;;4.22;2.50;;;;;;;-1.94;85.48;95235.28;4993364;28;20039;-61
2021/04/07 08:36:43;;;;;;;2.28;2.08;;;;;;;-1.74;84.15;95268.88;4993157;28;20045;-62
2021/04/07 08:39:16;;;;;;;2.25;2.05;;;;;;;-2.28;81.70;95205.47;4993382;28;20056;-62
2021/04/07 08:41:43;;;;;;;3.50;3.03;;;;;;;-1.31;78.34;95220.81;4992852;28;20064;-61
2021/04/07 08:44:10;;;;;;;3.72;2.42;;;;;;;-1.28;76.10;95235.22;4993388;28;20058;-61
2021/04/07 08:46:54;;;;;;;6.07;2.17;;;;;;;-1.71;74.79;95169.31;4995338;28;20113;-62
2021/04/07 08:49:41;;;;;;;2.22;1.67;;;;;;;-0.82;73.15;95268.34;4993183;28;20519;-61
2021/04/07 08:52:23;;;;;;;3.33;2.03;;;;;;;-1.00;73.04;95289.38;5008112;28;20549;-62
2021/04/07 08:54:56;;;;;;;3.92;2.92;;;;;;;-0.91;71.12;95220.13;4993353;28;20500;-62
2021/04/07 08:57:30;;;;;;;4.97;3.03;;;;;;;-0.62;72.10;95278.41;4993089;28;20065;-63
2021/04/07 08:59:57;;;;;;;6.30;3.03;;;;;;;-0.64;71.47;95278.66;5008209;28;20081;-64
2021/04/07 09:02:23;;;;;;;4.70;2.95;;;;;;;-0.24;69.19;95279.69;4992931;28;20305;-63
2021/04/07 09:05:08;;;;;;;7.00;3.28;;;;;;;0.24;67.67;95297.56;4995074;28;20161;-63
2021/04/07 09:07:46;;;;;;;6.30;2.42;;;;;;;-1.01;73.28;95222.50;4993223;28;20050;-63
2021/04/07 09:10:20;;;;;;;2.38;2.05;;;;;;;-1.22;73.80;95333.50;4991769;28;20514;-62
2021/04/07 09:12:47;;;;;;;4.78;2.13;;;;;;;-1.09;72.78;95299.34;4992897;28;20042;-62
2021/04/07 09:15:24;;;;;;;3.53;2.25;;;;;;;-1.56;70.27;95221.03;4992948;28;20475;-62
2021/04/07 09:17:53;;;;;;;5.32;3.15;;;;;;;-0.50;68.97;95291.47;5007747;28;20544;-61
2021/04/07 09:20:38;;;;;;;5.20;2.85;;;;;;;-0.51;68.35;95290.69;4992500;28;20042;-63
2021/04/07 09:23:15;;;;;;;2.38;1.67;;;;;;;-0.39;67.61;95311.56;5007621;28;20038;-62
2021/04/07 09:25:50;;;;;;;3.00;1.88;;;;;;;-0.54;64.42;95262.38;4994622;28;20026;-63
2021/04/07 09:28:16;;;;;;;3.13;2.42;;;;;;;0.17;64.94;95296.94;4992544;28;20134;-62
2021/04/07 09:30:47;;;;;;;5.95;3.30;;;;;;;0.01;67.36;95258.47;4992653;28;20082;-62
2021/04/07 09:33:18;;;;;;;2.67;1.50;;;;;;;-0.50;67.97;95312.38;4992599;28;20081;-62
2021/04/07 09:36:02;;;;;;;1.73;1.63;;;;;;;-0.82;69.58;95346.69;5007623;28;20042;-62
2021/04/07 09:38:30;;;;;;;2.53;1.38;;;;;;;-1.03;68.22;95274.94;5006689;28;20038;-62
2021/04/07 09:41:29;;;;;;;5.20;1.15;;;;;;;-1.09;68.83;95331.47;4991770;28;20057;-62
2021/04/07 09:43:56;;;;;;;1.75;1.35;;;;;;;-1.05;69.06;95340.44;4995471;28;20034;-63
2021/04/07 09:46:22;;;;;;;2.20;1.92;;;;;;;-0.72;68.42;95333.84;5009199;28;20031;-62
2021/04/07 09:48:49;;;;;;;3.40;1.60;;;;;;;-0.93;66.01;95288.22;5007090;28;20041;-63
2021/04/07 09:51:51;;;;;;;1.00;0.90;;;;;;;-1.18;65.67;95264.94;4991030;28;20038;-63
2021/04/07 09:54:28;;;;;;;4.88;2.20;;;;;;;0.52;64.91;95291.53;4991669;28;20074;-67
2021/04/07 09:56:56;;;;;;;2.55;1.70;;;;;;;0.85;61.17;95337.06;4992106;28;20080;-62
2021/04/07 09:59:42;;;;;;;3.45;2.13;;;;;;;1.07;60.47;95316.19;4992104;28;20058;-65
2021/04/07 10:02:23;;;;;;;4.68;2.08;;;;;;;0.28;64.64;95364.09;4989960;28;20054;-62
2021/04/07 10:04:49;;;;;;;7.25;1.73;;;;;;;-2.57;81.86;95182.81;4993881;28;20084;-65
2021/04/07 10:07:20;;;;;;;3.75;1.83;;;;;;;-2.06;83.81;95311.81;4991829;28;20125;-63
2021/04/07 10:09:53;;;;;;;3.20;1.50;;;;;;;-2.55;89.23;95379.53;4991827;28;20054;-62
2021/04/07 10:12:20;;;;;;;1.42;1.25;;;;;;;-2.58;97.65;95395.56;4991418;28;20034;-59
2021/04/07 10:14:51;;;;;;;2.58;2.38;;;;;;;-3.24;98.52;95289.47;4991600;28;20117;-61
2021/04/07 10:17:22;;;;;;;2.22;1.80;;;;;;;-2.83;99.93;95384.38;5006923;28;20041;-71
2021/04/07 10:19:48;;;;;;;4.47;2.05;;;;;;;-2.83;95.29;95243.81;5008148;28;20033;-65
2021/04/07 10:22:21;;;;;;;4.65;2.67;;;;;;;-1.71;91.24;95317.97;4991458;28;20038;-62
2021/04/07 10:24:47;;;;;;;2.85;2.10;;;;;;;-0.97;89.82;95356.78;4991694;28;20041;-61
2021/04/07 10:27:23;;;;;;;6.35;2.20;;;;;;;-1.48;86.11;95332.88;4991353;28;20054;-65
2021/04/07 10:30:01;;;;;;;2.25;1.90;;;;;;;-1.11;85.94;95319.66;5006697;28;20157;-59
2021/04/07 10:32:27;;;;;;;11.07;4.00;;;;;;;-1.18;82.86;95267.56;4990943;28;20049;-60
2021/04/07 10:34:59;;;;;;;4.60;2.45;;;;;;;-0.21;80.25;95311.38;4993118;28;20022;-60
2021/04/07 10:37:25;;;;;;;2.78;1.98;;;;;;;-1.05;75.18;95202.06;4991132;28;20550;-62
2021/04/07 10:39:50;;;;;;;8.13;2.80;;;;;;;-0.24;75.15;95316.28;4989565;28;20031;-60
2021/04/07 10:42:18;;;;;;;7.45;2.70;;;;;;;-0.46;78.03;95370.97;4991139;28;20527;-61
2021/04/07 10:44:58;;;;;;;2.83;2.38;;;;;;;-0.10;77.40;95372.53;4988122;28;20042;-61
2021/04/07 10:47:24;;;;;;;1.48;1.25;;;;;;;-0.81;77.39;95363.97;5006137;28;20477;-64
2021/04/07 10:49:56;;;;;;;4.20;1.98;;;;;;;-1.38;75.20;95235.81;4992472;28;20058;-69
2021/04/07 10:52:34;;;;;;;4.07;1.55;;;;;;;-1.12;71.20;95263.25;4991226;28;20042;-61
2021/04/07 10:55:01;;;;;;;1.58;0.95;;;;;;;-0.65;71.87;95381.56;4991010;28;20400;-61
2021/04/07 10:57:55;;;;;;;2.33;1.50;;;;;;;-1.06;71.05;95325.78;4990756;28;20035;-62
2021/04/07 11:00:28;;;;;;;3.83;2.17;;;;;;;0.07;70.99;95377.81;4991589;28;20492;-62
2021/04/07 11:02:54;;;;;;;3.63;1.92;;;;;;;0.25;68.13;95361.94;4990512;28;20046;-62
2021/04/07 11:05:22;;;;;;;3.17;1.88;;;;;;;0.47;65.63;95305.31;4990520;28;20492;-62
2021/04/07 11:07:59;;;;;;;4.75;1.55;;;;;;;1.02;63.54;95380.59;5007761;28;20384;-62
2021/04/07 11:10:24;;;;;;;4.13;1.13;;;;;;;0.17;64.35;95350.03;4991390;28;20049;-59
2021/04/07 11:12:50;;;;;;;4.85;1.40;;;;;;;-0.73;64.84;95293.09;4990631;28;20042;-61
2021/04/07 11:15:15;;;;;;;2.47;1.40;;;;;;;0.26;63.23;95384.47;5005716;28;20117;-60
2021/04/07 11:17:53;;;;;;;5.03;1.35;;;;;;;-0.31;64.78;95348.59;4990145;28;20125;-60
2021/04/07 11:20:20;;;;;;;2.92;1.58;;;;;;;0.08;65.08;95389.88;4989916;28;20488;-60
2021/04/07 11:22:45;;;;;;;2.75;1.40;;;;;;;0.24;66.04;95362.97;5007017;28;20030;-61
2021/04/07 11:25:11;;;;;;;5.10;1.70;;;;;;;-0.33;64.88;95238.22;4990435;28;20045;-61
2021/04/07 11:27:37;;;;;;;3.10;1.60;;;;;;;1.41;62.64;95371.97;4990257;28;20125;-60
2021/04/07 11:30:04;;;;;;;6.38;1.80;;;;;;;1.51;61.38;95317.06;4990306;28;20034;-60
2021/04/07 11:32:32;;;;;;;5.82;1.63;;;;;;;1.22;60.48;95300.69;4990174;28;20118;-60
2021/04/07 11:35:03;;;;;;;3.88;1.60;;;;;;;1.86;57.55;95353.47;4989995;28;20420;-61
2021/04/07 11:37:37;;;;;;;1.20;0.95;;;;;;;1.13;57.38;95341.44;4992125;28;20032;-60
2021/04/07 11:40:05;;;;;;;3.72;1.40;;;;;;;1.70;53.71;95352.47;4990566;28;20616;-61
2021/04/07 11:42:43;;;;;;;5.25;1.08;;;;;;;2.26;52.23;95323.47;4988718;28;20038;-61